sensor_id;sensor_type;location;lat;lon;timestamp;temperature;humidity
45435;DHT22;31183;47.404;8.500;2023-04-25T00:02:13;10.70;82.70
45435;DHT22;31183;47.404;8.500;2023-04-25T00:04:41;10.60;82.80
45435;DHT22;31183;47.404;8.500;2023-04-25T00:07:08;10.70;83.00
45435;DHT22;31183;47.404;8.500;2023-04-25T00:09:35;10.70;83.30
45435;DHT22;31183;47.404;8.500;2023-04-25T00:12:02;10.70;83.20
45435;DHT22;31183;47.404;8.500;2023-04-25T00:14:29;10.60;83.40
45435;DHT22;31183;47.404;8.500;2023-04-25T00:16:56;10.70;83.30
45435;DHT22;31183;47.404;8.500;2023-04-25T00:19:24;10.70;83.40
45435;DHT22;31183;47.404;8.500;2023-04-25T00:21:51;10.60;83.30
45435;DHT22;31183;47.404;8.500;2023-04-25T00:24:17;10.60;83.50
45435;DHT22;31183;47.404;8.500;2023-04-25T00:26:44;10.60;83.30
45435;DHT22;31183;47.404;8.500;2023-04-25T00:29:10;10.50;83.50
45435;DHT22;31183;47.404;8.500;2023-04-25T00:31:37;10.50;83.90
45435;DHT22;31183;47.404;8.500;2023-04-25T00:34:04;10.50;83.90
45435;DHT22;31183;47.404;8.500;2023-04-25T00:36:30;10.50;84.10
45435;DHT22;31183;47.404;8.500;2023-04-25T00:38:57;10.50;83.30
45435;DHT22;31183;47.404;8.500;2023-04-25T00:41:25;10.40;83.60
45435;DHT22;31183;47.404;8.500;2023-04-25T00:43:54;10.40;84.00
45435;DHT22;31183;47.404;8.500;2023-04-25T00:46:22;10.40;84.80
45435;DHT22;31183;47.404;8.500;2023-04-25T00:48:48;10.40;85.00
45435;DHT22;31183;47.404;8.500;2023-04-25T00:51:19;10.40;84.90
45435;DHT22;31183;47.404;8.500;2023-04-25T00:53:46;10.40;85.50
45435;DHT22;31183;47.404;8.500;2023-04-25T00:56:14;10.40;84.90
45435;DHT22;31183;47.404;8.500;2023-04-25T00:58:41;10.40;84.60
45435;DHT22;31183;47.404;8.500;2023-04-25T01:01:10;10.30;84.90
45435;DHT22;31183;47.404;8.500;2023-04-25T01:03:38;10.30;84.80
45435;DHT22;31183;47.404;8.500;2023-04-25T01:06:09;10.30;85.00
45435;DHT22;31183;47.404;8.500;2023-04-25T01:08:38;10.30;85.00
45435;DHT22;31183;47.404;8.500;2023-04-25T01:11:05;10.20;85.00
45435;DHT22;31183;47.404;8.500;2023-04-25T01:13:33;10.20;85.00
45435;DHT22;31183;47.404;8.500;2023-04-25T01:16:00;10.10;85.20
45435;DHT22;31183;47.404;8.500;2023-04-25T01:18:27;10.10;85.80
45435;DHT22;31183;47.404;8.500;2023-04-25T01:20:54;10.00;85.80
45435;DHT22;31183;47.404;8.500;2023-04-25T01:23:22;10.00;86.10
45435;DHT22;31183;47.404;8.500;2023-04-25T01:25:49;10.00;86.40
45435;DHT22;31183;47.404;8.500;2023-04-25T01:28:16;10.00;86.10
45435;DHT22;31183;47.404;8.500;2023-04-25T01:30:43;10.00;86.80
45435;DHT22;31183;47.404;8.500;2023-04-25T01:33:10;10.10;86.40
45435;DHT22;31183;47.404;8.500;2023-04-25T01:35:37;10.10;86.30
45435;DHT22;31183;47.404;8.500;2023-04-25T01:38:04;10.10;86.80
45435;DHT22;31183;47.404;8.500;2023-04-25T01:40:31;10.10;86.60
45435;DHT22;31183;47.404;8.500;2023-04-25T01:42:59;10.10;86.50
45435;DHT22;31183;47.404;8.500;2023-04-25T01:45:26;10.20;87.40
45435;DHT22;31183;47.404;8.500;2023-04-25T01:47:53;10.20;87.50
45435;DHT22;31183;47.404;8.500;2023-04-25T01:50:19;10.20;87.10
45435;DHT22;31183;47.404;8.500;2023-04-25T01:52:46;10.20;87.50
45435;DHT22;31183;47.404;8.500;2023-04-25T01:55:13;10.20;87.80
45435;DHT22;31183;47.404;8.500;2023-04-25T01:57:40;10.20;87.20
45435;DHT22;31183;47.404;8.500;2023-04-25T02:00:07;10.20;86.60
45435;DHT22;31183;47.404;8.500;2023-04-25T02:02:35;10.10;85.60
45435;DHT22;31183;47.404;8.500;2023-04-25T02:05:02;10.10;85.80
45435;DHT22;31183;47.404;8.500;2023-04-25T02:07:29;10.00;86.10
45435;DHT22;31183;47.404;8.500;2023-04-25T02:09:56;10.00;86.50
45435;DHT22;31183;47.404;8.500;2023-04-25T02:12:23;10.00;86.10
45435;DHT22;31183;47.404;8.500;2023-04-25T02:14:49;10.00;86.60
45435;DHT22;31183;47.404;8.500;2023-04-25T02:17:16;10.00;86.60
45435;DHT22;31183;47.404;8.500;2023-04-25T02:19:43;10.00;86.70
45435;DHT22;31183;47.404;8.500;2023-04-25T02:22:10;10.00;86.80
45435;DHT22;31183;47.404;8.500;2023-04-25T02:24:36;10.00;86.50
45435;DHT22;31183;47.404;8.500;2023-04-25T02:27:03;10.00;86.90
45435;DHT22;31183;47.404;8.500;2023-04-25T02:29:30;10.00;87.40
45435;DHT22;31183;47.404;8.500;2023-04-25T02:31:56;9.90;89.50
45435;DHT22;31183;47.404;8.500;2023-04-25T02:34:23;9.80;90.70
45435;DHT22;31183;47.404;8.500;2023-04-25T02:36:50;9.70;90.20
45435;DHT22;31183;47.404;8.500;2023-04-25T02:39:19;9.70;91.10
45435;DHT22;31183;47.404;8.500;2023-04-25T02:41:46;9.70;91.50
45435;DHT22;31183;47.404;8.500;2023-04-25T02:44:12;9.70;90.80
45435;DHT22;31183;47.404;8.500;2023-04-25T02:46:39;9.70;91.20
45435;DHT22;31183;47.404;8.500;2023-04-25T02:49:06;9.70;91.20
45435;DHT22;31183;47.404;8.500;2023-04-25T02:51:33;9.70;91.50
45435;DHT22;31183;47.404;8.500;2023-04-25T02:53:59;9.60;91.60
45435;DHT22;31183;47.404;8.500;2023-04-25T02:56:26;9.60;91.20
45435;DHT22;31183;47.404;8.500;2023-04-25T02:58:53;9.60;91.60
45435;DHT22;31183;47.404;8.500;2023-04-25T03:01:20;9.60;91.60
45435;DHT22;31183;47.404;8.500;2023-04-25T03:03:47;9.50;91.80
45435;DHT22;31183;47.404;8.500;2023-04-25T03:06:14;9.50;91.40
45435;DHT22;31183;47.404;8.500;2023-04-25T03:08:41;9.50;92.30
45435;DHT22;31183;47.404;8.500;2023-04-25T03:11:09;9.50;92.30
45435;DHT22;31183;47.404;8.500;2023-04-25T03:13:36;9.50;91.70
45435;DHT22;31183;47.404;8.500;2023-04-25T03:16:02;9.40;91.40
45435;DHT22;31183;47.404;8.500;2023-04-25T03:18:29;9.40;91.20
45435;DHT22;31183;47.404;8.500;2023-04-25T03:20:55;9.30;91.10
45435;DHT22;31183;47.404;8.500;2023-04-25T03:23:22;9.20;91.30
45435;DHT22;31183;47.404;8.500;2023-04-25T03:25:49;9.10;91.40
45435;DHT22;31183;47.404;8.500;2023-04-25T03:28:15;9.10;91.50
45435;DHT22;31183;47.404;8.500;2023-04-25T03:30:42;9.00;91.60
45435;DHT22;31183;47.404;8.500;2023-04-25T03:33:08;9.00;91.60
45435;DHT22;31183;47.404;8.500;2023-04-25T03:35:35;9.00;91.60
45435;DHT22;31183;47.404;8.500;2023-04-25T03:38:01;8.80;91.50
45435;DHT22;31183;47.404;8.500;2023-04-25T03:40:28;8.80;91.70
45435;DHT22;31183;47.404;8.500;2023-04-25T03:42:55;8.70;91.80
45435;DHT22;31183;47.404;8.500;2023-04-25T03:45:21;8.70;91.90
45435;DHT22;31183;47.404;8.500;2023-04-25T03:47:48;8.60;92.20
45435;DHT22;31183;47.404;8.500;2023-04-25T03:50:15;8.60;92.40
45435;DHT22;31183;47.404;8.500;2023-04-25T03:52:42;8.50;92.90
45435;DHT22;31183;47.404;8.500;2023-04-25T03:55:09;8.60;93.00
45435;DHT22;31183;47.404;8.500;2023-04-25T03:57:36;8.60;93.10
45435;DHT22;31183;47.404;8.500;2023-04-25T04:00:03;8.60;92.80
45435;DHT22;31183;47.404;8.500;2023-04-25T04:02:30;8.50;92.90
45435;DHT22;31183;47.404;8.500;2023-04-25T04:04:57;8.40;93.00
45435;DHT22;31183;47.404;8.500;2023-04-25T04:07:24;8.30;93.30
45435;DHT22;31183;47.404;8.500;2023-04-25T04:09:51;8.30;93.50
45435;DHT22;31183;47.404;8.500;2023-04-25T04:12:17;8.30;93.70
45435;DHT22;31183;47.404;8.500;2023-04-25T04:14:44;8.20;94.00
45435;DHT22;31183;47.404;8.500;2023-04-25T04:17:10;8.20;94.00
45435;DHT22;31183;47.404;8.500;2023-04-25T04:19:37;8.20;94.30
45435;DHT22;31183;47.404;8.500;2023-04-25T04:22:04;8.30;94.30
45435;DHT22;31183;47.404;8.500;2023-04-25T04:24:30;8.30;94.30
45435;DHT22;31183;47.404;8.500;2023-04-25T04:26:57;8.40;93.80
45435;DHT22;31183;47.404;8.500;2023-04-25T04:29:24;8.50;93.70
45435;DHT22;31183;47.404;8.500;2023-04-25T04:31:51;8.50;92.70
45435;DHT22;31183;47.404;8.500;2023-04-25T04:34:19;8.60;93.10
45435;DHT22;31183;47.404;8.500;2023-04-25T04:36:46;8.70;92.80
45435;DHT22;31183;47.404;8.500;2023-04-25T04:39:13;8.70;92.70
45435;DHT22;31183;47.404;8.500;2023-04-25T04:41:40;8.70;92.20
45435;DHT22;31183;47.404;8.500;2023-04-25T04:44:06;8.70;92.60
45435;DHT22;31183;47.404;8.500;2023-04-25T04:46:35;8.70;92.20
45435;DHT22;31183;47.404;8.500;2023-04-25T04:49:05;8.80;92.50
45435;DHT22;31183;47.404;8.500;2023-04-25T04:51:31;8.80;92.10
45435;DHT22;31183;47.404;8.500;2023-04-25T04:53:59;8.90;92.00
45435;DHT22;31183;47.404;8.500;2023-04-25T04:56:29;8.90;92.20
45435;DHT22;31183;47.404;8.500;2023-04-25T04:58:58;9.00;92.20
45435;DHT22;31183;47.404;8.500;2023-04-25T05:01:25;9.00;92.50
45435;DHT22;31183;47.404;8.500;2023-04-25T05:03:52;9.10;92.30
45435;DHT22;31183;47.404;8.500;2023-04-25T05:06:20;9.20;92.50
45435;DHT22;31183;47.404;8.500;2023-04-25T05:08:47;9.30;92.40
45435;DHT22;31183;47.404;8.500;2023-04-25T05:11:13;9.40;92.50
45435;DHT22;31183;47.404;8.500;2023-04-25T05:13:40;9.50;92.30
45435;DHT22;31183;47.404;8.500;2023-04-25T05:16:06;9.60;92.30
45435;DHT22;31183;47.404;8.500;2023-04-25T05:18:33;9.80;92.00
45435;DHT22;31183;47.404;8.500;2023-04-25T05:21:00;10.00;91.90
45435;DHT22;31183;47.404;8.500;2023-04-25T05:23:26;10.10;91.90
45435;DHT22;31183;47.404;8.500;2023-04-25T05:25:54;10.30;91.20
45435;DHT22;31183;47.404;8.500;2023-04-25T05:28:21;10.00;91.10
45435;DHT22;31183;47.404;8.500;2023-04-25T05:30:48;9.70;90.50
45435;DHT22;31183;47.404;8.500;2023-04-25T05:33:14;9.60;91.00
45435;DHT22;31183;47.404;8.500;2023-04-25T05:35:41;9.60;91.40
45435;DHT22;31183;47.404;8.500;2023-04-25T05:38:08;9.50;91.40
45435;DHT22;31183;47.404;8.500;2023-04-25T05:40:35;9.50;91.10
45435;DHT22;31183;47.404;8.500;2023-04-25T05:43:01;9.50;91.50
45435;DHT22;31183;47.404;8.500;2023-04-25T05:45:28;9.60;91.70
45435;DHT22;31183;47.404;8.500;2023-04-25T05:47:55;9.70;91.00
45435;DHT22;31183;47.404;8.500;2023-04-25T05:50:21;9.70;90.20
45435;DHT22;31183;47.404;8.500;2023-04-25T05:52:48;9.80;89.60
45435;DHT22;31183;47.404;8.500;2023-04-25T05:55:15;9.90;89.90
45435;DHT22;31183;47.404;8.500;2023-04-25T05:57:42;10.00;88.80
45435;DHT22;31183;47.404;8.500;2023-04-25T06:00:14;10.00;88.80
45435;DHT22;31183;47.404;8.500;2023-04-25T06:02:42;10.00;89.80
45435;DHT22;31183;47.404;8.500;2023-04-25T06:05:09;9.90;88.90
45435;DHT22;31183;47.404;8.500;2023-04-25T06:07:36;9.80;90.00
45435;DHT22;31183;47.404;8.500;2023-04-25T06:10:03;9.80;89.40
45435;DHT22;31183;47.404;8.500;2023-04-25T06:12:33;9.70;89.30
45435;DHT22;31183;47.404;8.500;2023-04-25T06:15:00;9.70;89.20
45435;DHT22;31183;47.404;8.500;2023-04-25T06:17:28;9.70;89.20
45435;DHT22;31183;47.404;8.500;2023-04-25T06:19:54;9.70;90.00
45435;DHT22;31183;47.404;8.500;2023-04-25T06:22:21;9.60;90.40
45435;DHT22;31183;47.404;8.500;2023-04-25T06:24:47;9.60;91.00
45435;DHT22;31183;47.404;8.500;2023-04-25T06:27:14;9.50;92.20
45435;DHT22;31183;47.404;8.500;2023-04-25T06:29:42;9.40;92.80
45435;DHT22;31183;47.404;8.500;2023-04-25T06:32:09;9.40;93.80
45435;DHT22;31183;47.404;8.500;2023-04-25T06:34:35;9.40;94.80
45435;DHT22;31183;47.404;8.500;2023-04-25T06:37:02;9.30;95.60
45435;DHT22;31183;47.404;8.500;2023-04-25T06:39:29;9.20;95.80
45435;DHT22;31183;47.404;8.500;2023-04-25T06:41:55;9.20;96.40
45435;DHT22;31183;47.404;8.500;2023-04-25T06:44:22;9.00;96.90
45435;DHT22;31183;47.404;8.500;2023-04-25T06:46:50;8.90;97.40
45435;DHT22;31183;47.404;8.500;2023-04-25T06:49:17;8.90;97.70
45435;DHT22;31183;47.404;8.500;2023-04-25T06:51:43;8.80;98.20
45435;DHT22;31183;47.404;8.500;2023-04-25T06:54:10;8.70;98.90
45435;DHT22;31183;47.404;8.500;2023-04-25T06:56:36;8.70;99.20
45435;DHT22;31183;47.404;8.500;2023-04-25T06:59:03;8.70;99.30
45435;DHT22;31183;47.404;8.500;2023-04-25T07:01:30;8.70;99.40
45435;DHT22;31183;47.404;8.500;2023-04-25T07:03:57;8.70;99.80
45435;DHT22;31183;47.404;8.500;2023-04-25T07:06:24;8.70;99.70
45435;DHT22;31183;47.404;8.500;2023-04-25T07:08:52;8.70;99.40
45435;DHT22;31183;47.404;8.500;2023-04-25T07:11:19;8.80;99.30
45435;DHT22;31183;47.404;8.500;2023-04-25T07:13:46;8.80;99.50
45435;DHT22;31183;47.404;8.500;2023-04-25T07:16:12;8.80;99.10
45435;DHT22;31183;47.404;8.500;2023-04-25T07:18:39;8.80;98.80
45435;DHT22;31183;47.404;8.500;2023-04-25T07:21:06;8.80;99.20
45435;DHT22;31183;47.404;8.500;2023-04-25T07:23:32;8.70;98.40
45435;DHT22;31183;47.404;8.500;2023-04-25T07:25:59;8.70;99.00
45435;DHT22;31183;47.404;8.500;2023-04-25T07:28:25;8.70;99.20
45435;DHT22;31183;47.404;8.500;2023-04-25T07:30:52;8.70;99.20
45435;DHT22;31183;47.404;8.500;2023-04-25T07:33:18;8.70;99.40
45435;DHT22;31183;47.404;8.500;2023-04-25T07:35:46;8.70;99.20
45435;DHT22;31183;47.404;8.500;2023-04-25T07:38:13;8.60;99.20
45435;DHT22;31183;47.404;8.500;2023-04-25T07:40:40;8.50;99.60
45435;DHT22;31183;47.404;8.500;2023-04-25T07:43:06;8.50;99.90
45435;DHT22;31183;47.404;8.500;2023-04-25T07:45:33;8.60;99.90
45435;DHT22;31183;47.404;8.500;2023-04-25T07:48:00;8.60;99.90
45435;DHT22;31183;47.404;8.500;2023-04-25T07:50:26;8.70;99.90
45435;DHT22;31183;47.404;8.500;2023-04-25T07:52:53;8.70;99.90
45435;DHT22;31183;47.404;8.500;2023-04-25T07:55:19;8.70;99.90
45435;DHT22;31183;47.404;8.500;2023-04-25T07:57:46;8.80;99.90
45435;DHT22;31183;47.404;8.500;2023-04-25T08:00:13;8.80;99.90
45435;DHT22;31183;47.404;8.500;2023-04-25T08:02:41;8.90;99.90
45435;DHT22;31183;47.404;8.500;2023-04-25T08:05:08;9.00;99.90
45435;DHT22;31183;47.404;8.500;2023-04-25T08:07:38;9.00;99.90
45435;DHT22;31183;47.404;8.500;2023-04-25T08:10:06;9.00;99.90
45435;DHT22;31183;47.404;8.500;2023-04-25T08:12:33;9.00;99.90
45435;DHT22;31183;47.404;8.500;2023-04-25T08:14:59;8.90;99.90
45435;DHT22;31183;47.404;8.500;2023-04-25T08:17:26;9.00;99.90
45435;DHT22;31183;47.404;8.500;2023-04-25T08:19:53;9.10;99.90
45435;DHT22;31183;47.404;8.500;2023-04-25T08:22:20;9.20;99.90
45435;DHT22;31183;47.404;8.500;2023-04-25T08:24:47;10.20;98.70
45435;DHT22;31183;47.404;8.500;2023-04-25T08:27:13;11.40;95.40
45435;DHT22;31183;47.404;8.500;2023-04-25T08:29:41;11.70;93.50
45435;DHT22;31183;47.404;8.500;2023-04-25T08:32:08;12.00;92.80
45435;DHT22;31183;47.404;8.500;2023-04-25T08:34:34;12.70;91.80
45435;DHT22;31183;47.404;8.500;2023-04-25T08:37:03;14.00;87.90
45435;DHT22;31183;47.404;8.500;2023-04-25T08:39:30;14.90;84.80
45435;DHT22;31183;47.404;8.500;2023-04-25T08:41:57;15.30;80.70
45435;DHT22;31183;47.404;8.500;2023-04-25T08:44:24;14.90;80.20
45435;DHT22;31183;47.404;8.500;2023-04-25T08:46:52;13.90;83.00
45435;DHT22;31183;47.404;8.500;2023-04-25T08:49:18;13.00;86.60
45435;DHT22;31183;47.404;8.500;2023-04-25T08:51:46;12.10;90.20
45435;DHT22;31183;47.404;8.500;2023-04-25T08:54:14;11.40;91.50
45435;DHT22;31183;47.404;8.500;2023-04-25T08:57:03;10.80;93.10
45435;DHT22;31183;47.404;8.500;2023-04-25T08:59:31;10.40;94.90
45435;DHT22;31183;47.404;8.500;2023-04-25T09:01:58;10.30;95.80
45435;DHT22;31183;47.404;8.500;2023-04-25T09:04:25;10.20;96.60
45435;DHT22;31183;47.404;8.500;2023-04-25T09:06:52;10.10;96.80
45435;DHT22;31183;47.404;8.500;2023-04-25T09:09:18;10.00;97.20
45435;DHT22;31183;47.404;8.500;2023-04-25T09:11:45;10.00;97.50
45435;DHT22;31183;47.404;8.500;2023-04-25T09:14:19;10.20;97.50
45435;DHT22;31183;47.404;8.500;2023-04-25T09:19:32;10.70;96.80
45435;DHT22;31183;47.404;8.500;2023-04-25T09:22:03;10.70;96.50
45435;DHT22;31183;47.404;8.500;2023-04-25T09:24:32;10.70;96.10
45435;DHT22;31183;47.404;8.500;2023-04-25T09:26:58;10.80;95.80
45435;DHT22;31183;47.404;8.500;2023-04-25T09:29:29;10.90;95.40
45435;DHT22;31183;47.404;8.500;2023-04-25T09:34:45;12.80;91.90
45435;DHT22;31183;47.404;8.500;2023-04-25T09:37:21;15.10;83.70
45435;DHT22;31183;47.404;8.500;2023-04-25T09:39:50;18.10;69.30
45435;DHT22;31183;47.404;8.500;2023-04-25T09:42:17;17.70;69.00
45435;DHT22;31183;47.404;8.500;2023-04-25T09:44:45;16.40;72.40
45435;DHT22;31183;47.404;8.500;2023-04-25T09:47:14;16.10;71.90
45435;DHT22;31183;47.404;8.500;2023-04-25T09:49:42;15.20;77.60
45435;DHT22;31183;47.404;8.500;2023-04-25T09:52:16;14.90;78.30
45435;DHT22;31183;47.404;8.500;2023-04-25T09:54:44;14.30;80.10
45435;DHT22;31183;47.404;8.500;2023-04-25T09:57:17;13.80;82.30
45435;DHT22;31183;47.404;8.500;2023-04-25T10:02:13;12.90;85.70
45435;DHT22;31183;47.404;8.500;2023-04-25T10:04:40;12.90;85.40
45435;DHT22;31183;47.404;8.500;2023-04-25T10:07:08;12.80;85.60
45435;DHT22;31183;47.404;8.500;2023-04-25T10:09:39;12.70;84.90
45435;DHT22;31183;47.404;8.500;2023-04-25T10:12:07;12.40;85.70
45435;DHT22;31183;47.404;8.500;2023-04-25T10:14:34;12.30;86.80
45435;DHT22;31183;47.404;8.500;2023-04-25T10:17:01;12.20;85.60
45435;DHT22;31183;47.404;8.500;2023-04-25T10:19:28;12.10;86.10
45435;DHT22;31183;47.404;8.500;2023-04-25T10:24:38;13.20;84.40
45435;DHT22;31183;47.404;8.500;2023-04-25T10:27:06;13.50;82.60
45435;DHT22;31183;47.404;8.500;2023-04-25T10:29:33;13.80;81.10
45435;DHT22;31183;47.404;8.500;2023-04-25T10:32:02;13.90;79.80
45435;DHT22;31183;47.404;8.500;2023-04-25T10:34:42;13.80;79.80
45435;DHT22;31183;47.404;8.500;2023-04-25T10:37:10;14.00;80.20
45435;DHT22;31183;47.404;8.500;2023-04-25T10:39:39;14.20;76.90
45435;DHT22;31183;47.404;8.500;2023-04-25T10:42:06;14.00;75.40
45435;DHT22;31183;47.404;8.500;2023-04-25T10:44:34;13.80;76.40
45435;DHT22;31183;47.404;8.500;2023-04-25T10:47:03;13.90;76.20
45435;DHT22;31183;47.404;8.500;2023-04-25T10:49:34;14.00;75.10
45435;DHT22;31183;47.404;8.500;2023-04-25T10:54:57;13.50;78.20
45435;DHT22;31183;47.404;8.500;2023-04-25T10:57:45;13.30;78.00
45435;DHT22;31183;47.404;8.500;2023-04-25T11:00:23;13.20;78.20
45435;DHT22;31183;47.404;8.500;2023-04-25T11:03:16;13.60;79.20
45435;DHT22;31183;47.404;8.500;2023-04-25T11:05:45;13.60;76.00
45435;DHT22;31183;47.404;8.500;2023-04-25T11:08:48;13.60;75.80
45435;DHT22;31183;47.404;8.500;2023-04-25T11:11:19;14.00;75.00
45435;DHT22;31183;47.404;8.500;2023-04-25T11:13:49;14.10;72.90
45435;DHT22;31183;47.404;8.500;2023-04-25T11:16:17;14.30;74.30
45435;DHT22;31183;47.404;8.500;2023-04-25T11:18:52;14.40;72.80
45435;DHT22;31183;47.404;8.500;2023-04-25T11:21:20;14.30;72.90
45435;DHT22;31183;47.404;8.500;2023-04-25T11:23:46;14.10;74.20
45435;DHT22;31183;47.404;8.500;2023-04-25T11:26:13;13.90;73.10
45435;DHT22;31183;47.404;8.500;2023-04-25T11:28:44;14.00;75.10
45435;DHT22;31183;47.404;8.500;2023-04-25T11:31:11;14.30;74.90
45435;DHT22;31183;47.404;8.500;2023-04-25T11:33:38;14.10;72.30
45435;DHT22;31183;47.404;8.500;2023-04-25T11:36:05;14.00;73.20
45435;DHT22;31183;47.404;8.500;2023-04-25T11:38:31;13.80;74.00
45435;DHT22;31183;47.404;8.500;2023-04-25T11:40:58;13.70;75.10
45435;DHT22;31183;47.404;8.500;2023-04-25T11:43:25;13.80;76.10
45435;DHT22;31183;47.404;8.500;2023-04-25T11:45:52;13.90;76.10
45435;DHT22;31183;47.404;8.500;2023-04-25T11:48:19;14.20;76.20
45435;DHT22;31183;47.404;8.500;2023-04-25T11:50:53;14.40;75.00
45435;DHT22;31183;47.404;8.500;2023-04-25T11:53:19;14.60;74.40
45435;DHT22;31183;47.404;8.500;2023-04-25T11:55:46;14.50;71.60
45435;DHT22;31183;47.404;8.500;2023-04-25T11:58:13;14.40;71.50
45435;DHT22;31183;47.404;8.500;2023-04-25T12:00:42;14.30;72.40
45435;DHT22;31183;47.404;8.500;2023-04-25T12:03:17;14.20;71.00
45435;DHT22;31183;47.404;8.500;2023-04-25T12:05:45;14.10;72.30
45435;DHT22;31183;47.404;8.500;2023-04-25T12:08:14;14.10;72.50
45435;DHT22;31183;47.404;8.500;2023-04-25T12:10:42;14.10;72.40
45435;DHT22;31183;47.404;8.500;2023-04-25T12:13:26;14.20;72.60
45435;DHT22;31183;47.404;8.500;2023-04-25T12:15:55;14.30;71.30
45435;DHT22;31183;47.404;8.500;2023-04-25T12:18:24;14.20;69.70
45435;DHT22;31183;47.404;8.500;2023-04-25T12:20:53;14.10;72.70
45435;DHT22;31183;47.404;8.500;2023-04-25T12:23:27;14.00;74.40
45435;DHT22;31183;47.404;8.500;2023-04-25T12:25:54;14.00;75.90
45435;DHT22;31183;47.404;8.500;2023-04-25T12:28:24;14.00;75.30
45435;DHT22;31183;47.404;8.500;2023-04-25T12:31:02;13.90;75.60
45435;DHT22;31183;47.404;8.500;2023-04-25T12:33:34;13.70;77.70
45435;DHT22;31183;47.404;8.500;2023-04-25T12:36:01;13.40;79.70
45435;DHT22;31183;47.404;8.500;2023-04-25T12:38:37;13.40;85.40
45435;DHT22;31183;47.404;8.500;2023-04-25T12:41:04;13.70;82.60
45435;DHT22;31183;47.404;8.500;2023-04-25T12:43:31;13.90;83.40
45435;DHT22;31183;47.404;8.500;2023-04-25T12:45:58;14.00;84.10
45435;DHT22;31183;47.404;8.500;2023-04-25T12:48:25;14.20;82.60
45435;DHT22;31183;47.404;8.500;2023-04-25T12:50:51;14.20;81.50
45435;DHT22;31183;47.404;8.500;2023-04-25T12:53:23;14.10;81.90
45435;DHT22;31183;47.404;8.500;2023-04-25T12:55:52;13.90;81.90
45435;DHT22;31183;47.404;8.500;2023-04-25T12:58:24;13.90;83.00
45435;DHT22;31183;47.404;8.500;2023-04-25T13:00:51;14.00;82.60
45435;DHT22;31183;47.404;8.500;2023-04-25T13:03:18;14.20;81.30
45435;DHT22;31183;47.404;8.500;2023-04-25T13:05:45;14.20;77.20
45435;DHT22;31183;47.404;8.500;2023-04-25T13:08:12;14.10;76.70
45435;DHT22;31183;47.404;8.500;2023-04-25T13:10:38;14.00;76.00
45435;DHT22;31183;47.404;8.500;2023-04-25T13:13:05;13.90;76.50
45435;DHT22;31183;47.404;8.500;2023-04-25T13:15:32;13.90;76.70
45435;DHT22;31183;47.404;8.500;2023-04-25T13:17:59;13.90;74.80
45435;DHT22;31183;47.404;8.500;2023-04-25T13:20:26;13.80;74.00
45435;DHT22;31183;47.404;8.500;2023-04-25T13:22:52;13.90;74.10
45435;DHT22;31183;47.404;8.500;2023-04-25T13:25:19;13.90;73.50
45435;DHT22;31183;47.404;8.500;2023-04-25T13:27:46;13.90;74.70
45435;DHT22;31183;47.404;8.500;2023-04-25T13:30:13;13.90;75.60
45435;DHT22;31183;47.404;8.500;2023-04-25T13:32:40;13.90;75.80
45435;DHT22;31183;47.404;8.500;2023-04-25T13:35:09;13.80;75.40
45435;DHT22;31183;47.404;8.500;2023-04-25T13:37:37;13.60;74.50
45435;DHT22;31183;47.404;8.500;2023-04-25T13:40:06;13.50;74.60
45435;DHT22;31183;47.404;8.500;2023-04-25T13:42:36;13.40;74.50
45435;DHT22;31183;47.404;8.500;2023-04-25T13:45:03;13.30;75.10
45435;DHT22;31183;47.404;8.500;2023-04-25T13:47:30;13.20;77.20
45435;DHT22;31183;47.404;8.500;2023-04-25T13:49:57;13.10;76.90
45435;DHT22;31183;47.404;8.500;2023-04-25T13:52:24;13.10;76.60
45435;DHT22;31183;47.404;8.500;2023-04-25T13:54:50;13.10;77.80
45435;DHT22;31183;47.404;8.500;2023-04-25T13:57:18;13.10;78.20
45435;DHT22;31183;47.404;8.500;2023-04-25T13:59:44;13.20;78.30
45435;DHT22;31183;47.404;8.500;2023-04-25T14:02:12;13.10;78.90
45435;DHT22;31183;47.404;8.500;2023-04-25T14:04:39;13.00;80.30
45435;DHT22;31183;47.404;8.500;2023-04-25T14:07:05;12.90;81.50
45435;DHT22;31183;47.404;8.500;2023-04-25T14:09:32;12.90;81.30
45435;DHT22;31183;47.404;8.500;2023-04-25T14:11:59;12.80;82.20
45435;DHT22;31183;47.404;8.500;2023-04-25T14:14:25;12.90;82.50
45435;DHT22;31183;47.404;8.500;2023-04-25T14:16:52;12.90;83.20
45435;DHT22;31183;47.404;8.500;2023-04-25T14:19:21;13.00;83.30
45435;DHT22;31183;47.404;8.500;2023-04-25T14:21:48;13.20;82.50
45435;DHT22;31183;47.404;8.500;2023-04-25T14:24:15;13.30;82.00
45435;DHT22;31183;47.404;8.500;2023-04-25T14:26:42;13.30;81.90
45435;DHT22;31183;47.404;8.500;2023-04-25T14:29:09;13.40;82.00
45435;DHT22;31183;47.404;8.500;2023-04-25T14:31:39;13.30;82.20
45435;DHT22;31183;47.404;8.500;2023-04-25T14:34:07;13.40;82.10
45435;DHT22;31183;47.404;8.500;2023-04-25T14:36:35;13.40;80.70
45435;DHT22;31183;47.404;8.500;2023-04-25T14:39:02;13.30;80.50
45435;DHT22;31183;47.404;8.500;2023-04-25T14:41:29;13.30;80.40
45435;DHT22;31183;47.404;8.500;2023-04-25T14:43:55;13.10;80.90
45435;DHT22;31183;47.404;8.500;2023-04-25T14:46:23;13.10;81.80
45435;DHT22;31183;47.404;8.500;2023-04-25T14:48:50;12.80;81.70
45435;DHT22;31183;47.404;8.500;2023-04-25T14:51:17;12.80;82.40
45435;DHT22;31183;47.404;8.500;2023-04-25T14:53:44;12.70;83.50
45435;DHT22;31183;47.404;8.500;2023-04-25T14:56:10;12.70;81.30
45435;DHT22;31183;47.404;8.500;2023-04-25T14:58:37;12.70;78.90
45435;DHT22;31183;47.404;8.500;2023-04-25T15:01:05;12.70;79.90
45435;DHT22;31183;47.404;8.500;2023-04-25T15:03:31;12.70;80.00
45435;DHT22;31183;47.404;8.500;2023-04-25T15:05:59;12.80;80.40
45435;DHT22;31183;47.404;8.500;2023-04-25T15:08:26;12.90;80.10
45435;DHT22;31183;47.404;8.500;2023-04-25T15:10:52;13.00;80.50
45435;DHT22;31183;47.404;8.500;2023-04-25T15:13:19;13.00;79.20
45435;DHT22;31183;47.404;8.500;2023-04-25T15:15:46;13.00;77.90
45435;DHT22;31183;47.404;8.500;2023-04-25T15:18:19;12.90;75.50
45435;DHT22;31183;47.404;8.500;2023-04-25T15:20:51;12.70;75.70
45435;DHT22;31183;47.404;8.500;2023-04-25T15:23:19;12.50;76.60
45435;DHT22;31183;47.404;8.500;2023-04-25T15:25:46;12.40;78.10
45435;DHT22;31183;47.404;8.500;2023-04-25T15:28:13;12.30;78.50
45435;DHT22;31183;47.404;8.500;2023-04-25T15:30:45;12.20;78.50
45435;DHT22;31183;47.404;8.500;2023-04-25T15:33:11;12.10;79.80
45435;DHT22;31183;47.404;8.500;2023-04-25T15:35:38;12.20;79.90
45435;DHT22;31183;47.404;8.500;2023-04-25T15:38:05;12.30;79.80
45435;DHT22;31183;47.404;8.500;2023-04-25T15:40:32;12.40;79.90
45435;DHT22;31183;47.404;8.500;2023-04-25T15:42:58;12.40;79.60
45435;DHT22;31183;47.404;8.500;2023-04-25T15:45:25;12.40;80.20
45435;DHT22;31183;47.404;8.500;2023-04-25T15:47:54;12.30;78.90
45435;DHT22;31183;47.404;8.500;2023-04-25T15:50:22;12.30;79.30
45435;DHT22;31183;47.404;8.500;2023-04-25T15:52:49;12.20;79.90
45435;DHT22;31183;47.404;8.500;2023-04-25T15:55:17;12.20;80.00